Time,TemperatureF,DewpointF,PressureIn,WindDirection,WindDirectionDegrees,WindSpeedMPH,WindSpeedGustMPH,Humidity,HourlyPrecipIn,Conditions,Clouds,dailyrainin,SolarRadiationWatts/m^2,SoftwareType,DateUTC
2013-12-09 00:00:00,25.8,9.7,30.47,East,79,0.0,3.0,50,0.00,,BKN090,0.00,0.00,VWS V14.01,2013-12-09 05:00:00,
2013-12-09 00:10:00,26.0,10.8,30.47,East,79,0.0,2.0,52,0.00,,OVC090,0.00,0.00,VWS V14.01,2013-12-09 05:10:00,
2013-12-09 00:20:00,26.0,12.1,30.47,ESE,113,1.0,4.0,55,0.00,,OVC090,0.00,0.00,VWS V14.01,2013-12-09 05:20:00,
2013-12-09 00:30:00,26.0,11.6,30.46,East,87,2.0,3.0,54,0.00,,OVC090,0.00,0.00,VWS V14.01,2013-12-09 05:30:00,
2013-12-09 00:40:00,26.0,11.2,30.46,East,87,0.0,2.0,53,0.00,,OVC080,0.00,0.00,VWS V14.01,2013-12-09 05:40:00,
2013-12-09 00:50:00,26.0,11.2,30.46,ESE,106,0.0,6.0,53,0.00,,OVC080,0.00,0.00,VWS V14.01,2013-12-09 05:50:00,
2013-12-09 01:00:00,26.0,12.5,30.46,ESE,110,0.0,5.0,56,0.00,,OVC080,0.00,0.00,VWS V14.01,2013-12-09 06:00:00,
2013-12-09 01:10:00,26.0,12.9,30.46,ESE,110,0.0,2.0,57,0.00,,BKN080,0.00,0.00,VWS V14.01,2013-12-09 06:10:00,
2013-12-09 01:20:00,25.8,13.5,30.46,East,91,1.0,4.0,59,0.00,,BKN080,0.00,0.00,VWS V14.01,2013-12-09 06:20:00,
2013-12-09 01:30:00,25.8,13.5,30.45,ENE,68,1.0,4.0,59,0.00,,BKN080,0.00,0.00,VWS V14.01,2013-12-09 06:30:00,
2013-12-09 01:40:00,25.8,11.9,30.45,NE,55,3.0,4.0,55,0.00,,SCT075,0.00,0.00,VWS V14.01,2013-12-09 06:40:00,
2013-12-09 01:50:00,25.8,12.3,30.45,East,82,1.0,9.0,56,0.00,,SCT075,0.00,0.00,VWS V14.01,2013-12-09 06:50:00,
2013-12-09 02:10:00,25.6,11.3,30.44,ENE,61,5.0,10.0,54,0.00,,SCT075,0.00,0.00,VWS V14.01,2013-12-09 07:10:00,
2013-12-09 02:20:00,25.6,11.7,30.44,ENE,77,5.0,10.0,55,0.00,,SCT075,0.00,0.00,VWS V14.01,2013-12-09 07:20:00,
2013-12-09 02:30:00,25.4,11.1,30.44,ESE,104,5.0,11.0,54,0.00,,SCT075,0.00,0.00,VWS V14.01,2013-12-09 07:30:00,
2013-12-09 02:40:00,25.3,10.6,30.44,ENE,78,4.0,6.0,53,0.00,,BKN085,0.00,0.00,VWS V14.01,2013-12-09 07:40:00,
2013-12-09 02:50:00,25.3,11.4,30.43,ESE,115,4.0,8.0,55,0.00,,BKN085,0.00,0.00,VWS V14.01,2013-12-09 07:50:00,
2013-12-09 03:00:00,25.3,11.0,30.42,East,79,3.0,12.0,54,0.00,,BKN085,0.00,0.00,VWS V14.01,2013-12-09 08:00:00,
2013-12-09 03:10:00,25.1,10.8,30.42,East,97,7.0,9.0,54,0.00,,OVC085,0.00,0.00,VWS V14.01,2013-12-09 08:10:00,
2013-12-09 03:20:00,25.1,10.8,30.42,SSE,153,4.0,11.0,54,0.00,,OVC085,0.00,0.00,VWS V14.01,2013-12-09 08:20:00,
2013-12-09 03:30:00,25.0,10.7,30.41,NE,48,6.0,12.0,54,0.00,,OVC085,0.00,0.00,VWS V14.01,2013-12-09 08:30:00,
2013-12-09 03:40:00,25.0,11.1,30.41,East,79,2.0,13.0,55,0.00,,BKN075,0.00,0.00,VWS V14.01,2013-12-09 08:40:00,
2013-12-09 03:50:00,25.0,11.9,30.40,ESE,117,5.0,13.0,57,0.00,,BKN075,0.00,0.00,VWS V14.01,2013-12-09 08:50:00,
2013-12-09 04:00:00,24.8,11.3,30.40,ENE,68,3.0,11.0,56,0.00,,BKN075,0.00,0.00,VWS V14.01,2013-12-09 09:00:00,
2013-12-09 04:10:00,24.7,12.8,30.40,ENE,61,4.0,13.0,60,0.00,,BKN075,0.00,0.00,VWS V14.01,2013-12-09 09:10:00,
2013-12-09 04:20:00,24.4,13.3,30.40,ESE,103,10.0,14.0,62,0.00,,BKN075,0.00,0.00,VWS V14.01,2013-12-09 09:20:00,
2013-12-09 04:30:00,24.4,14.3,30.39,ENE,77,13.0,14.0,65,0.00,,BKN075,0.00,0.00,VWS V14.01,2013-12-09 09:30:00,
2013-12-09 04:40:00,24.2,14.5,30.39,ENE,68,5.0,15.0,66,0.00,,BKN041,0.00,0.00,VWS V14.01,2013-12-09 09:40:00,
2013-12-09 04:50:00,24.1,14.4,30.39,NE,41,3.0,13.0,66,0.00,,BKN041,0.00,0.00,VWS V14.01,2013-12-09 09:50:00,
2013-12-09 05:00:00,23.9,14.9,30.38,ENE,75,10.0,13.0,68,0.00,,BKN041,0.00,0.00,VWS V14.01,2013-12-09 10:00:00,
2013-12-09 05:10:00,23.8,14.8,30.38,ENE,63,8.0,11.0,68,0.00,,FEW043,0.00,0.00,VWS V14.01,2013-12-09 10:10:00,
2013-12-09 05:20:00,23.6,15.6,30.37,ESE,109,5.0,15.0,71,0.00,,FEW043,0.00,0.00,VWS V14.01,2013-12-09 10:20:00,
2013-12-09 05:30:00,23.3,15.9,30.36,ENE,77,6.0,13.0,73,0.00,,FEW043,0.00,0.00,VWS V14.01,2013-12-09 10:30:00,
2013-12-09 05:40:00,23.3,16.6,30.36,East,99,8.0,10.0,75,0.00,,FEW023,0.00,0.00,VWS V14.01,2013-12-09 10:40:00,
2013-12-09 05:50:00,23.2,17.1,30.36,NE,37,10.0,16.0,77,0.00,,FEW023,0.00,0.00,VWS V14.01,2013-12-09 10:50:00,
2013-12-09 06:00:00,23.0,17.5,30.35,NE,54,9.0,12.0,79,0.00,,FEW023,0.00,0.00,VWS V14.01,2013-12-09 11:00:00,
2013-12-09 06:10:00,23.0,18.0,30.35,ENE,77,4.0,12.0,81,0.00,,BKN023,0.00,0.00,VWS V14.01,2013-12-09 11:10:00,
2013-12-09 06:20:00,22.7,18.3,30.35,NE,46,9.0,13.0,83,0.00,,BKN023,0.00,0.00,VWS V14.01,2013-12-09 11:20:00,
2013-12-09 06:30:00,22.2,18.1,30.34,NE,44,11.0,14.0,84,0.00,,BKN023,0.00,0.00,VWS V14.01,2013-12-09 11:30:00,
2013-12-09 06:40:00,22.1,18.6,30.34,NE,54,6.0,13.0,86,0.00,,OVC023,0.00,0.00,VWS V14.01,2013-12-09 11:40:00,
2013-12-09 06:50:00,22.2,18.9,30.33,NE,51,8.0,12.0,87,0.00,,OVC023,0.00,0.00,VWS V14.01,2013-12-09 11:50:00,
2013-12-09 07:10:00,22.2,18.4,30.32,East,80,10.0,10.0,85,0.00,,OVC023,0.00,0.00,VWS V14.01,2013-12-09 12:10:00,
2013-12-09 07:20:00,22.2,18.4,30.30,East,84,8.0,13.0,85,0.00,,OVC023,0.00,0.00,VWS V14.01,2013-12-09 12:20:00,
2013-12-09 07:30:00,22.2,18.7,30.30,East,88,6.0,13.0,86,0.00,,OVC023,0.00,7.00,VWS V14.01,2013-12-09 12:30:00,
2013-12-09 07:40:00,22.4,18.9,30.30,East,81,6.0,12.0,86,0.00,,OVC019,0.00,11.00,VWS V14.01,2013-12-09 12:40:00,
2013-12-09 07:50:00,22.5,19.0,30.30,NE,36,12.0,14.0,86,0.00,,OVC019,0.00,19.00,VWS V14.01,2013-12-09 12:50:00,
2013-12-09 08:00:00,22.7,19.4,30.29,NE,37,8.0,14.0,87,0.00,,OVC019,0.00,26.00,VWS V14.01,2013-12-09 13:00:00,
2013-12-09 08:10:00,22.4,19.1,30.29,NE,39,13.0,13.0,87,0.00,,OVC019,0.00,19.00,VWS V14.01,2013-12-09 13:10:00,
2013-12-09 08:20:00,22.4,19.7,30.28,NE,49,8.0,15.0,89,0.00,,OVC019,0.00,21.00,VWS V14.01,2013-12-09 13:20:00,
2013-12-09 08:30:00,22.2,19.2,30.28,NE,47,11.0,13.0,88,0.00,,OVC019,0.00,30.00,VWS V14.01,2013-12-09 13:30:00,
2013-12-09 08:40:00,22.2,18.9,30.28,ENE,62,6.0,16.0,87,0.00,,OVC017,0.00,32.00,VWS V14.01,2013-12-09 13:40:00,
2013-12-09 08:50:00,22.1,18.6,30.27,East,91,7.0,15.0,86,0.00,,OVC017,0.00,28.00,VWS V14.01,2013-12-09 13:50:00,
2013-12-09 09:00:00,22.1,18.8,30.27,NE,45,15.0,15.0,87,0.00,,OVC017,0.00,28.00,VWS V14.01,2013-12-09 14:00:00,
2013-12-09 09:10:00,22.1,18.8,30.27,NE,47,13.0,18.0,87,0.00,,OVC019,0.00,37.00,VWS V14.01,2013-12-09 14:10:00,
2013-12-09 09:20:00,22.1,18.6,30.26,ENE,68,4.0,15.0,86,0.00,,OVC019,0.00,46.00,VWS V14.01,2013-12-09 14:20:00,
2013-12-09 09:30:00,22.2,18.9,30.26,ENE,63,10.0,16.0,87,0.00,,OVC019,0.00,33.00,VWS V14.01,2013-12-09 14:30:00,
2013-12-09 09:40:00,22.4,19.4,30.26,NNE,30,6.0,10.0,88,0.00,,OVC021,0.00,53.00,VWS V14.01,2013-12-09 14:40:00,
2013-12-09 09:50:00,22.4,19.1,30.25,NE,37,6.0,9.0,87,0.00,,OVC021,0.00,42.00,VWS V14.01,2013-12-09 14:50:00,
2013-12-09 10:00:00,22.9,19.9,30.23,ENE,59,7.0,12.0,88,0.00,,OVC021,0.00,51.00,VWS V14.01,2013-12-09 15:00:00,
2013-12-09 10:10:00,23.0,19.7,30.23,NE,41,7.0,11.0,87,0.00,,OVC013,0.00,79.00,VWS V14.01,2013-12-09 15:10:00,
2013-12-09 10:20:00,23.2,19.6,30.22,ENE,57,6.0,14.0,86,0.00,,OVC013,0.00,76.00,VWS V14.01,2013-12-09 15:20:00,
2013-12-09 10:30:00,23.5,20.2,30.20,NE,41,5.0,13.0,87,0.00,,OVC013,0.00,95.00,VWS V14.01,2013-12-09 15:30:00,
2013-12-09 10:40:00,23.5,20.2,30.20,ENE,60,5.0,12.0,87,0.00,,OVC013,0.00,39.00,VWS V14.01,2013-12-09 15:40:00,
2013-12-09 10:50:00,23.5,20.5,30.19,NE,39,4.0,7.0,88,0.00,,OVC013,0.00,44.00,VWS V14.01,2013-12-09 15:50:00,
2013-12-09 11:00:00,23.6,20.6,30.18,NE,51,3.0,9.0,88,0.00,,OVC013,0.00,65.00,VWS V14.01,2013-12-09 16:00:00,
2013-12-09 11:10:00,23.8,20.5,30.18,ENE,69,4.0,9.0,87,0.00,,OVC013,0.00,30.00,VWS V14.01,2013-12-09 16:10:00,
2013-12-09 11:20:00,23.9,20.9,30.17,ENE,72,4.0,7.0,88,0.00,,OVC013,0.00,33.00,VWS V14.01,2013-12-09 16:20:00,
2013-12-09 11:30:00,23.9,20.9,30.15,NE,51,5.0,10.0,88,0.00,,OVC013,0.00,67.00,VWS V14.01,2013-12-09 16:30:00,
2013-12-09 11:40:00,24.2,21.2,30.15,NE,56,4.0,10.0,88,0.00,,OVC019,0.00,46.00,VWS V14.01,2013-12-09 16:40:00,
2013-12-09 11:50:00,24.5,21.5,30.13,ENE,60,6.0,8.0,88,0.00,,OVC019,0.00,49.00,VWS V14.01,2013-12-09 16:50:00,
2013-12-09 12:00:00,24.4,21.1,30.12,ENE,65,6.0,12.0,87,0.00,,OVC019,0.00,39.00,VWS V14.01,2013-12-09 17:00:00,
2013-12-09 12:10:00,24.1,20.8,30.12,East,81,5.0,10.0,87,0.00,,OVC013,0.00,35.00,VWS V14.01,2013-12-09 17:10:00,
2013-12-09 12:20:00,24.1,21.3,30.10,NE,53,6.0,10.0,89,0.00,,OVC013,0.00,35.00,VWS V14.01,2013-12-09 17:20:00,
2013-12-09 12:30:00,24.2,21.7,30.09,ENE,71,6.0,10.0,90,0.00,,OVC013,0.00,37.00,VWS V14.01,2013-12-09 17:30:00,
2013-12-09 12:40:00,24.4,21.9,30.09,NE,50,9.0,11.0,90,0.00,,OVC010,0.00,42.00,VWS V14.01,2013-12-09 17:40:00,
2013-12-09 12:50:00,24.5,22.0,30.08,ENE,63,4.0,12.0,90,0.00,,OVC010,0.00,30.00,VWS V14.01,2013-12-09 17:50:00,
2013-12-09 13:00:00,24.7,22.2,30.06,NE,46,7.0,11.0,90,0.00,,OVC010,0.00,37.00,VWS V14.01,2013-12-09 18:00:00,
2013-12-09 13:10:00,24.5,22.0,30.06,East,81,7.0,11.0,90,0.00,,OVC008,0.00,39.00,VWS V14.01,2013-12-09 18:10:00,
2013-12-09 13:20:00,24.5,22.0,30.06,ENE,57,9.0,11.0,90,0.00,,OVC008,0.00,23.00,VWS V14.01,2013-12-09 18:20:00,
2013-12-09 13:30:00,24.5,22.2,30.05,East,79,7.0,11.0,91,0.00,,OVC008,0.00,32.00,VWS V14.01,2013-12-09 18:30:00,
2013-12-09 13:40:00,24.5,22.0,30.05,ENE,63,6.0,11.0,90,0.00,,OVC012,0.00,25.00,VWS V14.01,2013-12-09 18:40:00,
2013-12-09 13:50:00,24.5,22.2,30.04,NE,53,4.0,10.0,91,0.00,,OVC012,0.00,14.00,VWS V14.01,2013-12-09 18:50:00,
2013-12-09 14:00:00,24.8,22.5,30.03,NE,49,5.0,10.0,91,0.00,,OVC012,0.00,16.00,VWS V14.01,2013-12-09 19:00:00,
2013-12-09 14:20:00,25.0,23.0,30.03,ENE,70,5.0,6.0,92,0.00,,OVC010,0.00,18.00,VWS V14.01,2013-12-09 19:20:00,
2013-12-09 14:30:00,25.1,23.1,30.02,NE,54,4.0,8.0,92,0.00,,OVC010,0.00,19.00,VWS V14.01,2013-12-09 19:30:00,
2013-12-09 14:40:00,25.1,23.1,30.02,ENE,63,5.0,11.0,92,0.00,,OVC008,0.00,12.00,VWS V14.01,2013-12-09 19:40:00,
2013-12-09 14:50:00,25.3,23.6,30.00,ENE,57,3.0,10.0,93,0.00,,OVC008,0.00,7.00,VWS V14.01,2013-12-09 19:50:00,
2013-12-09 15:00:00,25.3,23.6,29.99,ESE,106,3.0,10.0,93,0.00,,OVC008,0.00,7.00,VWS V14.01,2013-12-09 20:00:00,
2013-12-09 15:10:00,25.4,23.7,29.99,ENE,62,4.0,8.0,93,0.00,,OVC014,0.00,5.00,VWS V14.01,2013-12-09 20:10:00,
2013-12-09 15:20:00,25.6,23.9,29.98,NNE,21,6.0,10.0,93,0.00,,OVC014,0.00,5.00,VWS V14.01,2013-12-09 20:20:00,
2013-12-09 15:30:00,25.7,24.0,29.98,ENE,74,3.0,11.0,93,0.00,,OVC014,0.00,5.00,VWS V14.01,2013-12-09 20:30:00,
2013-12-09 15:40:00,25.7,24.0,29.98,East,80,2.0,11.0,93,0.00,,OVC016,0.00,0.00,VWS V14.01,2013-12-09 20:40:00,
2013-12-09 15:50:00,25.8,24.1,29.97,East,90,4.0,7.0,93,0.00,,OVC016,0.00,0.00,VWS V14.01,2013-12-09 20:50:00,
2013-12-09 16:00:00,25.8,24.1,29.97,ENE,70,5.0,6.0,93,0.00,,OVC016,0.00,0.00,VWS V14.01,2013-12-09 21:00:00,
2013-12-09 16:10:00,25.8,24.1,29.97,ENE,65,7.0,7.0,93,0.00,,OVC014,0.00,0.00,VWS V14.01,2013-12-09 21:10:00,
2013-12-09 16:20:00,25.8,24.3,29.95,NE,52,4.0,7.0,94,0.00,,OVC014,0.00,0.00,VWS V14.01,2013-12-09 21:20:00,
2013-12-09 16:30:00,26.0,24.5,29.94,NE,55,6.0,9.0,94,0.00,,OVC014,0.00,0.00,VWS V14.01,2013-12-09 21:30:00,
2013-12-09 16:40:00,25.8,24.3,29.94,NE,39,6.0,7.0,94,0.00,,OVC014,0.00,0.00,VWS V14.01,2013-12-09 21:40:00,
2013-12-09 16:50:00,26.1,24.9,29.94,NE,48,4.0,9.0,95,0.00,,OVC014,0.00,0.00,VWS V14.01,2013-12-09 21:50:00,
2013-12-09 17:00:00,26.1,24.9,29.94,NNE,28,4.0,6.0,95,0.00,,OVC014,0.00,0.00,VWS V14.01,2013-12-09 22:00:00,
2013-12-09 17:10:00,26.3,25.1,29.94,ENE,58,4.0,6.0,95,0.00,,OVC012,0.00,0.00,VWS V14.01,2013-12-09 22:10:00,
2013-12-09 17:20:00,26.3,25.3,29.93,ENE,59,4.0,6.0,96,0.00,,OVC012,0.00,0.00,VWS V14.01,2013-12-09 22:20:00,
2013-12-09 17:30:00,26.6,25.6,29.92,ENE,77,1.0,4.0,96,0.00,,OVC012,0.00,0.00,VWS V14.01,2013-12-09 22:30:00,
2013-12-09 17:40:00,26.6,25.6,29.92,NW,315,0.0,3.0,96,0.00,,OVC010,0.00,0.00,VWS V14.01,2013-12-09 22:40:00,
2013-12-09 17:50:00,26.4,25.7,29.91,NW,320,0.0,2.0,97,0.00,,OVC010,0.00,0.00,VWS V14.01,2013-12-09 22:50:00,
2013-12-09 18:00:00,26.7,26.0,29.91,NW,319,0.0,0.0,97,0.00,,OVC010,0.00,0.00,VWS V14.01,2013-12-09 23:00:00,
2013-12-09 18:10:00,26.9,26.2,29.91,ENE,63,3.0,5.0,97,0.00,,OVC010,0.00,0.00,VWS V14.01,2013-12-09 23:10:00,
2013-12-09 18:20:00,26.6,25.6,29.92,ENE,72,0.0,5.0,96,0.00,,OVC010,0.00,0.00,VWS V14.01,2013-12-09 23:20:00,
2013-12-09 18:30:00,26.6,25.9,29.91,ENE,72,2.0,3.0,97,0.00,,OVC010,0.00,0.00,VWS V14.01,2013-12-09 23:30:00,
2013-12-09 18:40:00,26.9,26.2,29.91,ENE,72,0.0,3.0,97,0.00,,OVC010,0.00,0.00,VWS V14.01,2013-12-09 23:40:00,
2013-12-09 18:50:00,26.7,26.0,29.90,East,87,2.0,5.0,97,0.00,,OVC010,0.00,0.00,VWS V14.01,2013-12-09 23:50:00,
2013-12-09 19:00:00,26.7,26.0,29.89,East,87,1.0,2.0,97,0.00,,OVC010,0.00,0.00,VWS V14.01,2013-12-10 00:00:00,
2013-12-09 19:10:00,26.9,26.2,29.89,East,87,0.0,1.0,97,0.00,,OVC004,0.00,0.00,VWS V14.01,2013-12-10 00:10:00,
2013-12-09 19:20:00,26.9,26.2,29.89,East,87,0.0,0.0,97,0.00,,OVC004,0.00,0.00,VWS V14.01,2013-12-10 00:20:00,
2013-12-09 19:30:00,26.9,26.2,29.89,East,87,0.0,0.0,97,0.00,,OVC004,0.00,0.00,VWS V14.01,2013-12-10 00:30:00,
2013-12-09 19:40:00,26.9,26.2,29.89,East,87,0.0,0.0,97,0.00,,OVC012,0.00,0.00,VWS V14.01,2013-12-10 00:40:00,
2013-12-09 19:50:00,27.0,26.3,29.87,East,87,0.0,0.0,97,0.00,,OVC012,0.00,0.00,VWS V14.01,2013-12-10 00:50:00,
2013-12-09 20:00:00,27.2,26.5,29.89,NNW,344,0.0,3.0,97,0.00,,OVC012,0.00,0.00,VWS V14.01,2013-12-10 01:00:00,
2013-12-09 20:10:00,27.2,26.2,29.89,NW,317,0.0,3.0,96,0.00,,OVC013,0.00,0.00,VWS V14.01,2013-12-10 01:10:00,
2013-12-09 20:20:00,27.0,25.8,29.88,West,276,1.0,3.0,95,0.00,,OVC013,0.00,0.00,VWS V14.01,2013-12-10 01:20:00,
2013-12-09 20:30:00,27.0,26.0,29.88,West,276,0.0,4.0,96,0.00,,OVC013,0.00,0.00,VWS V14.01,2013-12-10 01:30:00,
2013-12-09 20:40:00,26.9,25.9,29.88,West,276,0.0,2.0,96,0.00,,OVC011,0.00,0.00,VWS V14.01,2013-12-10 01:40:00,
2013-12-09 20:50:00,26.9,26.2,29.87,West,276,0.0,0.0,97,0.00,,OVC011,0.00,0.00,VWS V14.01,2013-12-10 01:50:00,
2013-12-09 21:00:00,27.0,26.3,29.87,West,276,0.0,0.0,97,0.00,,OVC011,0.00,0.00,VWS V14.01,2013-12-10 02:00:00,
2013-12-09 21:10:00,27.0,26.3,29.87,West,276,0.0,0.0,97,0.00,,OVC011,0.00,0.00,VWS V14.01,2013-12-10 02:10:00,
2013-12-09 21:20:00,27.0,26.5,29.86,West,276,0.0,2.0,98,0.00,,OVC011,0.00,0.00,VWS V14.01,2013-12-10 02:20:00,
2013-12-09 21:30:00,26.9,26.2,29.86,West,276,2.0,3.0,97,0.00,,OVC011,0.00,0.00,VWS V14.01,2013-12-10 02:30:00,
2013-12-09 21:40:00,26.6,25.9,29.86,West,276,2.0,4.0,97,0.00,,OVC013,0.00,0.00,VWS V14.01,2013-12-10 02:40:00,
2013-12-09 21:50:00,26.3,25.6,29.86,West,276,0.0,4.0,97,0.00,,OVC013,0.00,0.00,VWS V14.01,2013-12-10 02:50:00,
2013-12-09 22:00:00,26.1,25.6,29.86,West,276,0.0,3.0,98,0.00,,OVC013,0.00,0.00,VWS V14.01,2013-12-10 03:00:00,
2013-12-09 22:10:00,26.3,25.8,29.86,West,276,1.0,3.0,98,0.00,,BKN011,0.00,0.00,VWS V14.01,2013-12-10 03:10:00,
2013-12-09 22:20:00,26.3,25.8,29.85,West,276,2.0,3.0,98,0.00,,BKN011,0.00,0.00,VWS V14.01,2013-12-10 03:20:00,
2013-12-09 22:30:00,26.7,26.2,29.85,West,276,1.0,3.0,98,0.00,,BKN011,0.00,0.00,VWS V14.01,2013-12-10 03:30:00,
2013-12-09 22:40:00,26.7,26.2,29.85,West,276,0.0,3.0,98,0.00,,BKN042,0.00,0.00,VWS V14.01,2013-12-10 03:40:00,
2013-12-09 22:50:00,27.2,26.7,29.85,West,276,2.0,4.0,98,0.00,,BKN042,0.00,0.00,VWS V14.01,2013-12-10 03:50:00,
2013-12-09 23:00:00,26.9,26.4,29.84,West,276,1.0,4.0,98,0.00,,BKN042,0.00,0.00,VWS V14.01,2013-12-10 04:00:00,
2013-12-09 23:10:00,27.0,26.5,29.84,West,276,2.0,4.0,98,0.00,,OVC042,0.00,0.00,VWS V14.01,2013-12-10 04:10:00,
2013-12-09 23:20:00,27.0,26.5,29.84,WSW,255,0.0,6.0,98,0.00,,OVC042,0.00,0.00,VWS V14.01,2013-12-10 04:20:00,
2013-12-09 23:30:00,27.3,26.8,29.84,WSW,255,3.0,3.0,98,0.00,,OVC042,0.00,0.00,VWS V14.01,2013-12-10 04:30:00,
2013-12-09 23:40:00,27.2,26.7,29.84,WSW,255,2.0,4.0,98,0.00,,OVC040,0.00,0.00,VWS V14.01,2013-12-10 04:40:00,
2013-12-09 23:50:00,27.0,26.5,29.84,WSW,255,0.0,4.0,98,0.00,,OVC040,0.00,0.00,VWS V14.01,2013-12-10 04:50:00,